sensor_id;sensor_type;location;lat;lon;timestamp;pressure;altitude;pressure_sealevel;temperature;humidity
6827;BME280;3451;52.476;13.316;2022-08-19T00:01:58;63210.69;;;-145.19;100.00
6827;BME280;3451;52.476;13.316;2022-08-19T00:04:31;63412.19;;;-145.19;100.00
6827;BME280;3451;52.476;13.316;2022-08-19T00:06:59;63436.63;;;-145.19;100.00
6827;BME280;3451;52.476;13.316;2022-08-19T00:09:26;63090.59;;;-145.19;100.00
6827;BME280;3451;52.476;13.316;2022-08-19T00:11:56;63094.69;;;-145.19;100.00
6827;BME280;3451;52.476;13.316;2022-08-19T00:14:25;63027.50;;;-145.19;100.00
6827;BME280;3451;52.476;13.316;2022-08-19T00:16:52;63041.75;;;-145.19;100.00
6827;BME280;3451;52.476;13.316;2022-08-19T00:19:21;62944.06;;;-145.19;100.00
6827;BME280;3451;52.476;13.316;2022-08-19T00:21:48;62427.16;;;-145.19;100.00
6827;BME280;3451;52.476;13.316;2022-08-19T00:24:15;62052.75;;;-145.19;100.00
6827;BME280;3451;52.476;13.316;2022-08-19T00:26:43;61348.78;;;-145.19;100.00
6827;BME280;3451;52.476;13.316;2022-08-19T00:29:12;59632.13;;;-145.19;100.00
6827;BME280;3451;52.476;13.316;2022-08-19T00:31:39;58774.06;;;-145.19;100.00
6827;BME280;3451;52.476;13.316;2022-08-19T00:34:06;59050.59;;;-145.19;100.00
6827;BME280;3451;52.476;13.316;2022-08-19T00:36:33;59603.66;;;-145.19;100.00
6827;BME280;3451;52.476;13.316;2022-08-19T00:39:00;59821.25;;;-145.19;100.00
6827;BME280;3451;52.476;13.316;2022-08-19T00:41:27;58940.78;;;-145.19;100.00
6827;BME280;3451;52.476;13.316;2022-08-19T00:46:24;55727.66;;;-145.19;100.00
6827;BME280;3451;52.476;13.316;2022-08-19T00:48:50;54722.19;;;-145.19;100.00
6827;BME280;3451;52.476;13.316;2022-08-19T00:51:17;54541.44;;;-145.19;100.00
6827;BME280;3451;52.476;13.316;2022-08-19T00:53:43;54328.22;;;-145.19;100.00
6827;BME280;3451;52.476;13.316;2022-08-19T00:56:10;54139.34;;;-145.19;100.00
6827;BME280;3451;52.476;13.316;2022-08-19T00:58:37;55037.00;;;-145.19;100.00
6827;BME280;3451;52.476;13.316;2022-08-19T01:01:04;55701.25;;;-145.19;100.00
6827;BME280;3451;52.476;13.316;2022-08-19T01:03:30;55404.69;;;-145.19;100.00
6827;BME280;3451;52.476;13.316;2022-08-19T01:06:17;55796.75;;;-145.19;100.00
6827;BME280;3451;52.476;13.316;2022-08-19T01:08:46;56343.25;;;-145.19;100.00
6827;BME280;3451;52.476;13.316;2022-08-19T01:11:15;56172.59;;;-145.19;100.00
6827;BME280;3451;52.476;13.316;2022-08-19T01:13:42;56509.88;;;-145.19;100.00
6827;BME280;3451;52.476;13.316;2022-08-19T01:16:17;56776.06;;;-145.19;100.00
6827;BME280;3451;52.476;13.316;2022-08-19T01:18:45;57005.69;;;-145.19;100.00
6827;BME280;3451;52.476;13.316;2022-08-19T01:21:18;57251.59;;;-145.19;100.00
6827;BME280;3451;52.476;13.316;2022-08-19T01:23:48;57446.69;;;-145.19;100.00
6827;BME280;3451;52.476;13.316;2022-08-19T01:26:20;57820.69;;;-145.19;100.00
6827;BME280;3451;52.476;13.316;2022-08-19T01:28:52;57861.34;;;-145.19;100.00
6827;BME280;3451;52.476;13.316;2022-08-19T01:31:26;57444.66;;;-145.19;100.00
6827;BME280;3451;52.476;13.316;2022-08-19T01:33:55;57243.47;;;-145.19;100.00
6827;BME280;3451;52.476;13.316;2022-08-19T01:36:38;57511.75;;;-145.19;100.00
6827;BME280;3451;52.476;13.316;2022-08-19T01:39:09;58038.19;;;-145.19;100.00
6827;BME280;3451;52.476;13.316;2022-08-19T01:41:36;58680.56;;;-145.19;100.00
6827;BME280;3451;52.476;13.316;2022-08-19T01:44:04;59457.25;;;-145.19;100.00
6827;BME280;3451;52.476;13.316;2022-08-19T01:46:46;60764.97;;;-145.19;100.00
6827;BME280;3451;52.476;13.316;2022-08-19T01:49:13;62337.63;;;-145.19;100.00
6827;BME280;3451;52.476;13.316;2022-08-19T01:51:40;63798.94;;;-145.19;100.00
6827;BME280;3451;52.476;13.316;2022-08-19T01:54:09;65154.91;;;-145.19;100.00
6827;BME280;3451;52.476;13.316;2022-08-19T01:56:35;66825.06;;;-145.19;100.00
6827;BME280;3451;52.476;13.316;2022-08-19T01:59:09;69103.28;;;-145.19;100.00
6827;BME280;3451;52.476;13.316;2022-08-19T02:01:36;71042.25;;;-145.19;100.00
6827;BME280;3451;52.476;13.316;2022-08-19T02:04:03;72912.75;;;-145.19;100.00
6827;BME280;3451;52.476;13.316;2022-08-19T02:06:31;75559.91;;;-145.19;100.00
6827;BME280;3451;52.476;13.316;2022-08-19T02:08:59;78359.97;;;-145.19;100.00
6827;BME280;3451;52.476;13.316;2022-08-19T02:11:28;81444.16;;;-145.19;100.00
6827;BME280;3451;52.476;13.316;2022-08-19T02:13:57;86540.63;;;-145.19;100.00
6827;BME280;3451;52.476;13.316;2022-08-19T02:16:25;90264.22;;;-145.19;100.00
6827;BME280;3451;52.476;13.316;2022-08-19T02:18:51;92793.66;;;-145.19;100.00
6827;BME280;3451;52.476;13.316;2022-08-19T02:21:20;95435.44;;;-145.19;100.00
6827;BME280;3451;52.476;13.316;2022-08-19T02:23:47;98278.13;;;-145.19;100.00
6827;BME280;3451;52.476;13.316;2022-08-19T02:26:14;102421.56;;;-145.19;100.00
6827;BME280;3451;52.476;13.316;2022-08-19T02:28:41;105888.28;;;-145.19;100.00
6827;BME280;3451;52.476;13.316;2022-08-19T02:31:13;106855.22;;;-145.19;100.00
6827;BME280;3451;52.476;13.316;2022-08-19T02:33:41;107118.59;;;-145.19;100.00
6827;BME280;3451;52.476;13.316;2022-08-19T02:36:08;107118.59;;;-145.19;100.00
6827;BME280;3451;52.476;13.316;2022-08-19T02:38:35;107381.97;;;-145.19;100.00
6827;BME280;3451;52.476;13.316;2022-08-19T02:41:11;107381.97;;;-145.19;100.00
6827;BME280;3451;52.476;13.316;2022-08-19T02:43:38;107381.97;;;-145.19;100.00
6827;BME280;3451;52.476;13.316;2022-08-19T02:46:29;107381.97;;;-145.19;100.00
6827;BME280;3451;52.476;13.316;2022-08-19T02:48:59;107381.97;;;-145.19;100.00
6827;BME280;3451;52.476;13.316;2022-08-19T02:51:35;107381.97;;;-145.19;100.00
6827;BME280;3451;52.476;13.316;2022-08-19T02:54:03;107908.81;;;-145.19;100.00
6827;BME280;3451;52.476;13.316;2022-08-19T02:56:30;108699.19;;;-145.19;100.00
6827;BME280;3451;52.476;13.316;2022-08-19T02:58:57;108962.69;;;-145.19;100.00
6827;BME280;3451;52.476;13.316;2022-08-19T03:01:29;108962.69;;;-145.19;100.00
6827;BME280;3451;52.476;13.316;2022-08-19T03:03:58;108962.69;;;-145.19;100.00
6827;BME280;3451;52.476;13.316;2022-08-19T03:06:26;109226.19;;;-145.19;100.00
6827;BME280;3451;52.476;13.316;2022-08-19T03:08:53;109489.72;;;-145.19;100.00
6827;BME280;3451;52.476;13.316;2022-08-19T03:11:25;109489.72;;;-145.19;100.00
6827;BME280;3451;52.476;13.316;2022-08-19T03:13:53;109489.72;;;-145.19;100.00
6827;BME280;3451;52.476;13.316;2022-08-19T03:16:22;109753.25;;;-145.19;100.00
6827;BME280;3451;52.476;13.316;2022-08-19T03:18:50;109753.25;;;-145.19;100.00
6827;BME280;3451;52.476;13.316;2022-08-19T03:21:21;110016.81;;;-145.19;100.00
6827;BME280;3451;52.476;13.316;2022-08-19T03:23:47;110016.81;;;-145.19;100.00
6827;BME280;3451;52.476;13.316;2022-08-19T03:26:14;110280.41;;;-145.19;100.00
6827;BME280;3451;52.476;13.316;2022-08-19T03:28:44;110280.41;;;-145.19;100.00
6827;BME280;3451;52.476;13.316;2022-08-19T03:31:20;110544.00;;;-145.19;100.00
6827;BME280;3451;52.476;13.316;2022-08-19T03:34:13;110544.00;;;-145.19;100.00
6827;BME280;3451;52.476;13.316;2022-08-19T03:36:40;110544.00;;;-145.19;100.00
6827;BME280;3451;52.476;13.316;2022-08-19T03:39:06;110807.63;;;-145.19;100.00
6827;BME280;3451;52.476;13.316;2022-08-19T03:41:40;110807.63;;;-145.19;100.00
6827;BME280;3451;52.476;13.316;2022-08-19T03:44:15;111071.25;;;-145.19;100.00
6827;BME280;3451;52.476;13.316;2022-08-19T03:46:46;111071.25;;;-145.19;100.00
6827;BME280;3451;52.476;13.316;2022-08-19T03:49:13;111334.88;;;-145.19;100.00
6827;BME280;3451;52.476;13.316;2022-08-19T03:51:41;111334.88;;;-145.19;100.00
6827;BME280;3451;52.476;13.316;2022-08-19T03:54:11;111598.56;;;-145.19;100.00
6827;BME280;3451;52.476;13.316;2022-08-19T03:56:38;111862.22;;;-145.19;100.00
6827;BME280;3451;52.476;13.316;2022-08-19T03:59:08;112125.94;;;-145.19;100.00
6827;BME280;3451;52.476;13.316;2022-08-19T04:01:35;112389.66;;;-145.19;100.00
6827;BME280;3451;52.476;13.316;2022-08-19T04:04:02;112653.38;;;-145.19;100.00
6827;BME280;3451;52.476;13.316;2022-08-19T04:06:32;112917.13;;;-145.19;100.00
6827;BME280;3451;52.476;13.316;2022-08-19T04:09:04;112917.13;;;-145.19;100.00
6827;BME280;3451;52.476;13.316;2022-08-19T04:11:35;112917.13;;;-145.19;100.00
6827;BME280;3451;52.476;13.316;2022-08-19T04:14:14;113180.91;;;-145.19;100.00
6827;BME280;3451;52.476;13.316;2022-08-19T04:16:41;113180.91;;;-145.19;100.00
6827;BME280;3451;52.476;13.316;2022-08-19T04:19:11;113180.91;;;-145.19;100.00
6827;BME280;3451;52.476;13.316;2022-08-19T04:21:37;113180.91;;;-145.19;100.00
6827;BME280;3451;52.476;13.316;2022-08-19T04:24:04;113444.69;;;-145.19;100.00
6827;BME280;3451;52.476;13.316;2022-08-19T04:26:35;113180.91;;;-145.19;100.00
6827;BME280;3451;52.476;13.316;2022-08-19T04:29:06;113180.91;;;-145.19;100.00
6827;BME280;3451;52.476;13.316;2022-08-19T04:31:38;113444.69;;;-145.19;100.00
6827;BME280;3451;52.476;13.316;2022-08-19T04:34:08;113444.69;;;-145.19;100.00
6827;BME280;3451;52.476;13.316;2022-08-19T04:36:39;113444.69;;;-145.19;100.00
6827;BME280;3451;52.476;13.316;2022-08-19T04:39:10;113444.69;;;-145.19;100.00
6827;BME280;3451;52.476;13.316;2022-08-19T04:41:37;113444.69;;;-145.19;100.00
6827;BME280;3451;52.476;13.316;2022-08-19T04:44:22;113444.69;;;-145.19;100.00
6827;BME280;3451;52.476;13.316;2022-08-19T04:46:50;113708.47;;;-145.19;100.00
6827;BME280;3451;52.476;13.316;2022-08-19T04:49:21;113708.47;;;-145.19;100.00
6827;BME280;3451;52.476;13.316;2022-08-19T04:51:50;113708.47;;;-145.19;100.00
6827;BME280;3451;52.476;13.316;2022-08-19T04:54:21;113972.28;;;-145.19;100.00
6827;BME280;3451;52.476;13.316;2022-08-19T04:57:08;113972.28;;;-145.19;100.00
6827;BME280;3451;52.476;13.316;2022-08-19T04:59:38;113972.28;;;-145.19;100.00
6827;BME280;3451;52.476;13.316;2022-08-19T05:02:07;113972.28;;;-145.19;100.00
6827;BME280;3451;52.476;13.316;2022-08-19T05:04:34;113972.28;;;-145.19;100.00
6827;BME280;3451;52.476;13.316;2022-08-19T05:07:01;113972.28;;;-145.19;100.00
6827;BME280;3451;52.476;13.316;2022-08-19T05:09:29;113972.28;;;-145.19;100.00
6827;BME280;3451;52.476;13.316;2022-08-19T05:12:16;113972.28;;;-145.19;100.00
6827;BME280;3451;52.476;13.316;2022-08-19T05:14:43;113708.47;;;-145.19;100.00
6827;BME280;3451;52.476;13.316;2022-08-19T05:17:11;113708.47;;;-145.19;100.00
6827;BME280;3451;52.476;13.316;2022-08-19T05:19:58;113708.47;;;-145.19;100.00
6827;BME280;3451;52.476;13.316;2022-08-19T05:22:45;113708.47;;;-145.19;100.00
6827;BME280;3451;52.476;13.316;2022-08-19T05:25:16;113444.69;;;-145.19;100.00
6827;BME280;3451;52.476;13.316;2022-08-19T05:27:45;113180.91;;;-145.19;100.00
6827;BME280;3451;52.476;13.316;2022-08-19T05:30:12;113180.91;;;-145.19;100.00
6827;BME280;3451;52.476;13.316;2022-08-19T05:32:39;112917.13;;;-145.19;100.00
6827;BME280;3451;52.476;13.316;2022-08-19T05:35:06;112917.13;;;-145.19;100.00
6827;BME280;3451;52.476;13.316;2022-08-19T05:37:33;112917.13;;;-145.19;100.00
6827;BME280;3451;52.476;13.316;2022-08-19T05:40:00;112653.38;;;-145.19;100.00
6827;BME280;3451;52.476;13.316;2022-08-19T05:42:26;112389.66;;;-145.19;100.00
6827;BME280;3451;52.476;13.316;2022-08-19T05:44:53;112389.66;;;-145.19;100.00
6827;BME280;3451;52.476;13.316;2022-08-19T05:47:20;112125.94;;;-145.19;100.00
6827;BME280;3451;52.476;13.316;2022-08-19T05:49:47;112125.94;;;-145.19;100.00
6827;BME280;3451;52.476;13.316;2022-08-19T05:52:15;112125.94;;;-145.19;100.00
6827;BME280;3451;52.476;13.316;2022-08-19T05:54:45;111862.22;;;-145.19;100.00
6827;BME280;3451;52.476;13.316;2022-08-19T05:57:19;111598.56;;;-145.19;100.00
6827;BME280;3451;52.476;13.316;2022-08-19T05:59:46;111598.56;;;-145.19;100.00
6827;BME280;3451;52.476;13.316;2022-08-19T06:02:19;111334.88;;;-145.19;100.00
6827;BME280;3451;52.476;13.316;2022-08-19T06:04:45;111071.25;;;-145.19;100.00
6827;BME280;3451;52.476;13.316;2022-08-19T06:07:12;111071.25;;;-145.19;100.00
6827;BME280;3451;52.476;13.316;2022-08-19T06:09:39;110807.63;;;-145.19;100.00
6827;BME280;3451;52.476;13.316;2022-08-19T06:12:08;110807.63;;;-145.19;100.00
6827;BME280;3451;52.476;13.316;2022-08-19T06:14:35;110807.63;;;-145.19;100.00
6827;BME280;3451;52.476;13.316;2022-08-19T06:17:07;110807.63;;;-145.19;100.00
6827;BME280;3451;52.476;13.316;2022-08-19T06:19:33;110544.00;;;-145.19;100.00
6827;BME280;3451;52.476;13.316;2022-08-19T06:22:07;110807.63;;;-145.19;100.00
6827;BME280;3451;52.476;13.316;2022-08-19T06:24:33;110016.81;;;-145.19;100.00
6827;BME280;3451;52.476;13.316;2022-08-19T06:27:03;108962.69;;;-145.19;100.00
6827;BME280;3451;52.476;13.316;2022-08-19T06:29:31;107908.81;;;-145.19;100.00
6827;BME280;3451;52.476;13.316;2022-08-19T06:32:00;107118.59;;;-145.19;100.00
6827;BME280;3451;52.476;13.316;2022-08-19T06:34:29;106591.84;;;-145.19;100.00
6827;BME280;3451;52.476;13.316;2022-08-19T06:36:58;106328.50;;;-145.19;100.00
6827;BME280;3451;52.476;13.316;2022-08-19T06:39:30;105275.31;;;-145.19;100.00
6827;BME280;3451;52.476;13.316;2022-08-19T06:41:59;104222.41;;;-145.19;100.00
6827;BME280;3451;52.476;13.316;2022-08-19T06:44:28;103432.91;;;-145.19;100.00
6827;BME280;3451;52.476;13.316;2022-08-19T06:46:57;102643.53;;;-145.19;100.00
6827;BME280;3451;52.476;13.316;2022-08-19T06:49:24;102906.63;;;-145.19;100.00
6827;BME280;3451;52.476;13.316;2022-08-19T06:51:51;102380.44;;;-145.19;100.00
6827;BME280;3451;52.476;13.316;2022-08-19T06:54:18;102380.44;;;-145.19;100.00
6827;BME280;3451;52.476;13.316;2022-08-19T06:56:45;102906.63;;;-145.19;100.00
6827;BME280;3451;52.476;13.316;2022-08-19T06:59:15;103432.91;;;-145.19;100.00
6827;BME280;3451;52.476;13.316;2022-08-19T07:01:45;103959.22;;;-145.19;100.00
6827;BME280;3451;52.476;13.316;2022-08-19T07:04:15;104222.41;;;-145.19;100.00
6827;BME280;3451;52.476;13.316;2022-08-19T07:06:44;104222.41;;;-145.19;100.00
6827;BME280;3451;52.476;13.316;2022-08-19T07:09:20;103959.22;;;-145.19;100.00
6827;BME280;3451;52.476;13.316;2022-08-19T07:11:48;103696.03;;;-145.19;100.00
6827;BME280;3451;52.476;13.316;2022-08-19T07:14:18;103959.22;;;-145.19;100.00
6827;BME280;3451;52.476;13.316;2022-08-19T07:16:47;103959.22;;;-145.19;100.00
6827;BME280;3451;52.476;13.316;2022-08-19T07:19:14;103959.22;;;-145.19;100.00
6827;BME280;3451;52.476;13.316;2022-08-19T07:21:48;103696.03;;;-145.19;100.00
6827;BME280;3451;52.476;13.316;2022-08-19T07:24:16;103959.22;;;-145.19;100.00
6827;BME280;3451;52.476;13.316;2022-08-19T07:26:43;103959.22;;;-145.19;100.00
6827;BME280;3451;52.476;13.316;2022-08-19T07:29:11;103959.22;;;-145.19;100.00
6827;BME280;3451;52.476;13.316;2022-08-19T07:31:39;103696.03;;;-145.19;100.00
6827;BME280;3451;52.476;13.316;2022-08-19T07:34:10;103432.91;;;-145.19;100.00
6827;BME280;3451;52.476;13.316;2022-08-19T07:36:40;103169.75;;;-145.19;100.00
6827;BME280;3451;52.476;13.316;2022-08-19T07:39:10;102906.63;;;-145.19;100.00
6827;BME280;3451;52.476;13.316;2022-08-19T07:41:37;102117.38;;;-145.19;100.00
6827;BME280;3451;52.476;13.316;2022-08-19T07:44:05;101328.28;;;-145.19;100.00
6827;BME280;3451;52.476;13.316;2022-08-19T07:46:35;101065.28;;;-145.19;100.00
6827;BME280;3451;52.476;13.316;2022-08-19T07:49:03;101065.28;;;-145.19;100.00
6827;BME280;3451;52.476;13.316;2022-08-19T07:51:29;101065.28;;;-145.19;100.00
6827;BME280;3451;52.476;13.316;2022-08-19T07:54:03;101328.28;;;-145.19;100.00
6827;BME280;3451;52.476;13.316;2022-08-19T07:56:29;101591.31;;;-145.19;100.00
6827;BME280;3451;52.476;13.316;2022-08-19T07:58:56;101591.31;;;-145.19;100.00
6827;BME280;3451;52.476;13.316;2022-08-19T08:01:25;101854.34;;;-145.19;100.00
6827;BME280;3451;52.476;13.316;2022-08-19T08:03:56;102380.44;;;-145.19;100.00
6827;BME280;3451;52.476;13.316;2022-08-19T08:06:42;103169.75;;;-145.19;100.00
6827;BME280;3451;52.476;13.316;2022-08-19T08:09:32;103169.75;;;-145.19;100.00
6827;BME280;3451;52.476;13.316;2022-08-19T08:12:17;102906.63;;;-145.19;100.00
6827;BME280;3451;52.476;13.316;2022-08-19T08:15:03;102380.44;;;-145.19;100.00
6827;BME280;3451;52.476;13.316;2022-08-19T08:17:33;101854.34;;;-145.19;100.00
6827;BME280;3451;52.476;13.316;2022-08-19T08:20:17;101328.28;;;-145.19;100.00
6827;BME280;3451;52.476;13.316;2022-08-19T08:22:45;101065.28;;;-145.19;100.00
6827;BME280;3451;52.476;13.316;2022-08-19T08:25:31;101328.28;;;-145.19;100.00
6827;BME280;3451;52.476;13.316;2022-08-19T08:27:59;101065.28;;;-145.19;100.00
6827;BME280;3451;52.476;13.316;2022-08-19T08:30:27;101328.28;;;-145.19;100.00
6827;BME280;3451;52.476;13.316;2022-08-19T08:32:58;101591.31;;;-145.19;100.00
6827;BME280;3451;52.476;13.316;2022-08-19T08:35:25;101328.28;;;-145.19;100.00
6827;BME280;3451;52.476;13.316;2022-08-19T08:37:53;101065.28;;;-145.19;100.00
6827;BME280;3451;52.476;13.316;2022-08-19T08:40:29;101065.28;;;-145.19;100.00
6827;BME280;3451;52.476;13.316;2022-08-19T08:45:41;100802.31;;;-145.19;100.00
6827;BME280;3451;52.476;13.316;2022-08-19T08:48:19;100539.34;;;-145.19;100.00
6827;BME280;3451;52.476;13.316;2022-08-19T08:50:50;100013.47;;;-145.19;100.00
6827;BME280;3451;52.476;13.316;2022-08-19T08:53:20;99487.66;;;-145.19;100.00
6827;BME280;3451;52.476;13.316;2022-08-19T08:55:55;98699.06;;;-145.19;100.00
6827;BME280;3451;52.476;13.316;2022-08-19T08:58:46;98436.22;;;-145.19;100.00
6827;BME280;3451;52.476;13.316;2022-08-19T09:01:20;98436.22;;;-145.19;100.00
6827;BME280;3451;52.476;13.316;2022-08-19T09:03:47;98173.41;;;-145.19;100.00
6827;BME280;3451;52.476;13.316;2022-08-19T09:06:48;98436.22;;;-145.19;100.00
6827;BME280;3451;52.476;13.316;2022-08-19T09:09:26;98436.22;;;-145.19;100.00
6827;BME280;3451;52.476;13.316;2022-08-19T09:12:15;98699.06;;;-145.19;100.00
6827;BME280;3451;52.476;13.316;2022-08-19T09:14:57;99487.66;;;-145.19;100.00
6827;BME280;3451;52.476;13.316;2022-08-19T09:17:27;100013.47;;;-145.19;100.00
6827;BME280;3451;52.476;13.316;2022-08-19T09:20:06;100802.31;;;-145.19;100.00
6827;BME280;3451;52.476;13.316;2022-08-19T09:22:38;101591.31;;;-145.19;100.00
6827;BME280;3451;52.476;13.316;2022-08-19T09:25:07;101591.31;;;-145.19;100.00
6827;BME280;3451;52.476;13.316;2022-08-19T09:27:36;101854.34;;;-145.19;100.00
6827;BME280;3451;52.476;13.316;2022-08-19T09:30:12;102117.38;;;-145.19;100.00
6827;BME280;3451;52.476;13.316;2022-08-19T09:32:39;101854.34;;;-145.19;100.00
6827;BME280;3451;52.476;13.316;2022-08-19T09:35:08;101854.34;;;-145.19;100.00
6827;BME280;3451;52.476;13.316;2022-08-19T09:37:35;101854.34;;;-145.19;100.00
6827;BME280;3451;52.476;13.316;2022-08-19T09:40:03;102117.38;;;-145.19;100.00
6827;BME280;3451;52.476;13.316;2022-08-19T09:42:30;101854.34;;;-145.19;100.00
6827;BME280;3451;52.476;13.316;2022-08-19T09:45:00;101328.28;;;-145.19;100.00
6827;BME280;3451;52.476;13.316;2022-08-19T09:47:30;100539.34;;;-145.19;100.00
6827;BME280;3451;52.476;13.316;2022-08-19T09:49:56;100276.41;;;-145.19;100.00
6827;BME280;3451;52.476;13.316;2022-08-19T09:52:23;99750.53;;;-145.19;100.00
6827;BME280;3451;52.476;13.316;2022-08-19T09:54:52;99750.53;;;-145.19;100.00
6827;BME280;3451;52.476;13.316;2022-08-19T09:57:19;99750.53;;;-145.19;100.00
6827;BME280;3451;52.476;13.316;2022-08-19T09:59:45;98961.91;;;-145.19;100.00
6827;BME280;3451;52.476;13.316;2022-08-19T10:02:12;98173.41;;;-145.19;100.00
6827;BME280;3451;52.476;13.316;2022-08-19T10:04:47;97549.31;;;-145.19;100.00
6827;BME280;3451;52.476;13.316;2022-08-19T10:07:32;97200.34;;;-145.19;100.00
6827;BME280;3451;52.476;13.316;2022-08-19T10:10:05;97249.63;;;-145.19;100.00
6827;BME280;3451;52.476;13.316;2022-08-19T10:12:33;96732.38;;;-145.19;100.00
6827;BME280;3451;52.476;13.316;2022-08-19T10:15:00;96342.44;;;-145.19;100.00
6827;BME280;3451;52.476;13.316;2022-08-19T10:17:29;96067.44;;;-145.19;100.00
6827;BME280;3451;52.476;13.316;2022-08-19T10:19:59;95878.66;;;-145.19;100.00
6827;BME280;3451;52.476;13.316;2022-08-19T10:22:26;95628.31;;;-145.19;100.00
6827;BME280;3451;52.476;13.316;2022-08-19T10:24:53;94721.50;;;-145.19;100.00
6827;BME280;3451;52.476;13.316;2022-08-19T10:27:19;93285.78;;;-145.19;100.00
6827;BME280;3451;52.476;13.316;2022-08-19T10:29:46;91780.88;;;-145.19;100.00
6827;BME280;3451;52.476;13.316;2022-08-19T10:32:13;90124.88;;;-145.19;100.00
6827;BME280;3451;52.476;13.316;2022-08-19T10:34:41;86544.72;;;-145.19;100.00
6827;BME280;3451;52.476;13.316;2022-08-19T10:37:14;84530.72;;;-145.19;100.00
6827;BME280;3451;52.476;13.316;2022-08-19T10:39:49;82153.72;;;-145.19;100.00
6827;BME280;3451;52.476;13.316;2022-08-19T10:42:15;80129.69;;;-145.19;100.00
6827;BME280;3451;52.476;13.316;2022-08-19T10:44:43;77877.84;;;-145.19;100.00
6827;BME280;3451;52.476;13.316;2022-08-19T10:47:10;76774.88;;;-145.19;100.00
6827;BME280;3451;52.476;13.316;2022-08-19T10:49:50;75964.16;;;-145.19;100.00
6827;BME280;3451;52.476;13.316;2022-08-19T10:52:38;74655.56;;;-145.19;100.00
6827;BME280;3451;52.476;13.316;2022-08-19T10:55:14;74439.19;;;-145.19;100.00
6827;BME280;3451;52.476;13.316;2022-08-19T10:57:59;74794.34;;;-145.19;100.00
6827;BME280;3451;52.476;13.316;2022-08-19T11:00:28;74533.09;;;-145.19;100.00
6827;BME280;3451;52.476;13.316;2022-08-19T11:02:55;74235.09;;;-145.19;100.00
6827;BME280;3451;52.476;13.316;2022-08-19T11:05:22;74353.47;;;-145.19;100.00
6827;BME280;3451;52.476;13.316;2022-08-19T11:07:49;74769.84;;;-145.19;100.00
6827;BME280;3451;52.476;13.316;2022-08-19T11:10:18;75263.88;;;-145.19;100.00
6827;BME280;3451;52.476;13.316;2022-08-19T11:12:47;75104.63;;;-145.19;100.00
6827;BME280;3451;52.476;13.316;2022-08-19T11:15:14;74235.09;;;-145.19;100.00
6827;BME280;3451;52.476;13.316;2022-08-19T11:17:41;73902.44;;;-145.19;100.00
6827;BME280;3451;52.476;13.316;2022-08-19T11:20:10;73700.38;;;-145.19;100.00
6827;BME280;3451;52.476;13.316;2022-08-19T11:22:37;74086.09;;;-145.19;100.00
6827;BME280;3451;52.476;13.316;2022-08-19T11:25:09;75278.16;;;-145.19;100.00
6827;BME280;3451;52.476;13.316;2022-08-19T11:27:40;74863.75;;;-145.19;100.00
6827;BME280;3451;52.476;13.316;2022-08-19T11:30:09;74524.91;;;-145.19;100.00
6827;BME280;3451;52.476;13.316;2022-08-19T11:32:39;74522.88;;;-145.19;100.00
6827;BME280;3451;52.476;13.316;2022-08-19T11:35:12;74598.41;;;-145.19;100.00
6827;BME280;3451;52.476;13.316;2022-08-19T11:37:39;75321.03;;;-145.19;100.00
6827;BME280;3451;52.476;13.316;2022-08-19T11:40:07;76256.16;;;-145.19;100.00
6827;BME280;3451;52.476;13.316;2022-08-19T11:42:34;77379.44;;;-145.19;100.00
6827;BME280;3451;52.476;13.316;2022-08-19T11:45:19;77832.91;;;-145.19;100.00
6827;BME280;3451;52.476;13.316;2022-08-19T11:47:45;77130.25;;;-145.19;100.00
6827;BME280;3451;52.476;13.316;2022-08-19T11:50:14;76570.66;;;-145.19;100.00
6827;BME280;3451;52.476;13.316;2022-08-19T11:52:41;76905.56;;;-145.19;100.00
6827;BME280;3451;52.476;13.316;2022-08-19T11:55:08;77244.63;;;-145.19;100.00
6827;BME280;3451;52.476;13.316;2022-08-19T11:57:34;76917.84;;;-145.19;100.00
6827;BME280;3451;52.476;13.316;2022-08-19T12:00:03;76072.38;;;-145.19;100.00
6827;BME280;3451;52.476;13.316;2022-08-19T12:02:32;74365.72;;;-145.19;100.00
6827;BME280;3451;52.476;13.316;2022-08-19T12:04:58;73957.53;;;-145.19;100.00
6827;BME280;3451;52.476;13.316;2022-08-19T12:07:26;73253.50;;;-145.19;100.00
6827;BME280;3451;52.476;13.316;2022-08-19T12:09:52;72627.13;;;-145.19;100.00
6827;BME280;3451;52.476;13.316;2022-08-19T12:12:20;72296.63;;;-145.19;100.00
6827;BME280;3451;52.476;13.316;2022-08-19T12:14:47;72516.97;;;-145.19;100.00
6827;BME280;3451;52.476;13.316;2022-08-19T12:17:14;72992.34;;;-145.19;100.00
6827;BME280;3451;52.476;13.316;2022-08-19T12:19:42;72521.03;;;-145.19;100.00
6827;BME280;3451;52.476;13.316;2022-08-19T12:22:08;72190.56;;;-145.19;100.00
6827;BME280;3451;52.476;13.316;2022-08-19T12:24:34;71586.78;;;-145.19;100.00
6827;BME280;3451;52.476;13.316;2022-08-19T12:43:44;69099.22;;;-145.19;100.00
6827;BME280;3451;52.476;13.316;2022-08-19T12:46:11;68976.91;;;-145.19;100.00
6827;BME280;3451;52.476;13.316;2022-08-19T12:48:38;68326.75;;;-145.19;100.00
6827;BME280;3451;52.476;13.316;2022-08-19T12:51:10;67570.75;;;-145.19;100.00
6827;BME280;3451;52.476;13.316;2022-08-19T12:53:39;67096.03;;;-145.19;100.00
6827;BME280;3451;52.476;13.316;2022-08-19T12:56:10;66959.53;;;-145.19;100.00
6827;BME280;3451;52.476;13.316;2022-08-19T12:58:38;66780.25;;;-145.19;100.00
6827;BME280;3451;52.476;13.316;2022-08-19T13:09:14;59524.34;;;-145.19;100.00
6827;BME280;3451;52.476;13.316;2022-08-19T13:11:40;57641.81;;;-145.19;100.00
6827;BME280;3451;52.476;13.316;2022-08-19T13:14:07;57164.22;;;-145.19;100.00
6827;BME280;3451;52.476;13.316;2022-08-19T13:16:33;56713.06;;;-145.19;100.00
6827;BME280;3451;52.476;13.316;2022-08-19T13:19:00;55867.84;;;-145.19;100.00
6827;BME280;3451;52.476;13.316;2022-08-19T13:21:29;54588.16;;;-145.19;100.00